sensor_id;sensor_type;location;lat;lon;timestamp;P1;durP1;ratioP1;P2;durP2;ratioP2
60314;SDS011;46159;42.550;21.904;2023-04-03T00:01:35;8.85;;;4.15;;
60314;SDS011;46159;42.550;21.904;2023-04-03T00:04:03;12.20;;;4.55;;
60314;SDS011;46159;42.550;21.904;2023-04-03T00:06:29;8.07;;;4.00;;
60314;SDS011;46159;42.550;21.904;2023-04-03T00:08:55;17.27;;;5.32;;
60314;SDS011;46159;42.550;21.904;2023-04-03T00:11:21;9.20;;;4.50;;
60314;SDS011;46159;42.550;21.904;2023-04-03T00:13:48;11.55;;;4.32;;
60314;SDS011;46159;42.550;21.904;2023-04-03T00:16:14;9.40;;;4.68;;
60314;SDS011;46159;42.550;21.904;2023-04-03T00:18:40;8.70;;;4.20;;
60314;SDS011;46159;42.550;21.904;2023-04-03T00:21:06;10.27;;;4.40;;
60314;SDS011;46159;42.550;21.904;2023-04-03T00:23:33;9.55;;;4.18;;
60314;SDS011;46159;42.550;21.904;2023-04-03T00:25:59;9.20;;;4.10;;
60314;SDS011;46159;42.550;21.904;2023-04-03T00:28:25;15.93;;;9.90;;
60314;SDS011;46159;42.550;21.904;2023-04-03T00:30:52;9.18;;;3.65;;
60314;SDS011;46159;42.550;21.904;2023-04-03T00:33:18;7.35;;;3.28;;
60314;SDS011;46159;42.550;21.904;2023-04-03T00:35:46;9.88;;;4.00;;
60314;SDS011;46159;42.550;21.904;2023-04-03T00:38:13;8.27;;;4.43;;
60314;SDS011;46159;42.550;21.904;2023-04-03T00:40:42;9.27;;;4.03;;
60314;SDS011;46159;42.550;21.904;2023-04-03T00:43:20;8.60;;;3.60;;
60314;SDS011;46159;42.550;21.904;2023-04-03T00:45:47;9.95;;;3.67;;
60314;SDS011;46159;42.550;21.904;2023-04-03T00:48:15;9.07;;;4.05;;
60314;SDS011;46159;42.550;21.904;2023-04-03T00:50:42;8.75;;;4.05;;
60314;SDS011;46159;42.550;21.904;2023-04-03T00:53:11;7.88;;;3.67;;
60314;SDS011;46159;42.550;21.904;2023-04-03T00:55:37;7.95;;;3.47;;
60314;SDS011;46159;42.550;21.904;2023-04-03T00:58:04;7.93;;;3.50;;
60314;SDS011;46159;42.550;21.904;2023-04-03T01:00:31;7.32;;;3.63;;
60314;SDS011;46159;42.550;21.904;2023-04-03T01:02:58;9.82;;;3.55;;
60314;SDS011;46159;42.550;21.904;2023-04-03T01:05:25;7.05;;;2.95;;
60314;SDS011;46159;42.550;21.904;2023-04-03T01:07:51;8.43;;;3.28;;
60314;SDS011;46159;42.550;21.904;2023-04-03T01:10:18;7.88;;;2.97;;
60314;SDS011;46159;42.550;21.904;2023-04-03T01:12:46;7.75;;;3.35;;
60314;SDS011;46159;42.550;21.904;2023-04-03T01:15:15;8.60;;;3.10;;
60314;SDS011;46159;42.550;21.904;2023-04-03T01:17:43;16.98;;;6.18;;
60314;SDS011;46159;42.550;21.904;2023-04-03T01:25:30;13.30;;;7.47;;
60314;SDS011;46159;42.550;21.904;2023-04-03T01:27:57;9.20;;;4.32;;
60314;SDS011;46159;42.550;21.904;2023-04-03T01:30:24;10.23;;;4.68;;
60314;SDS011;46159;42.550;21.904;2023-04-03T01:32:51;9.65;;;4.97;;
60314;SDS011;46159;42.550;21.904;2023-04-03T01:35:17;8.32;;;4.35;;
60314;SDS011;46159;42.550;21.904;2023-04-03T01:37:43;8.20;;;4.00;;
60314;SDS011;46159;42.550;21.904;2023-04-03T01:40:09;7.43;;;3.20;;
60314;SDS011;46159;42.550;21.904;2023-04-03T01:42:35;7.40;;;3.35;;
60314;SDS011;46159;42.550;21.904;2023-04-03T01:45:02;7.38;;;3.20;;
60314;SDS011;46159;42.550;21.904;2023-04-03T01:47:28;7.88;;;3.58;;
60314;SDS011;46159;42.550;21.904;2023-04-03T01:49:54;7.40;;;3.38;;
60314;SDS011;46159;42.550;21.904;2023-04-03T01:52:20;8.30;;;3.28;;
60314;SDS011;46159;42.550;21.904;2023-04-03T01:54:46;7.75;;;3.20;;
60314;SDS011;46159;42.550;21.904;2023-04-03T01:57:12;7.55;;;3.33;;
60314;SDS011;46159;42.550;21.904;2023-04-03T01:59:40;8.45;;;3.70;;
60314;SDS011;46159;42.550;21.904;2023-04-03T02:02:06;7.97;;;2.75;;
60314;SDS011;46159;42.550;21.904;2023-04-03T02:04:32;7.82;;;3.65;;
60314;SDS011;46159;42.550;21.904;2023-04-03T02:06:58;6.97;;;3.42;;
60314;SDS011;46159;42.550;21.904;2023-04-03T02:09:24;8.52;;;3.50;;
60314;SDS011;46159;42.550;21.904;2023-04-03T02:11:51;7.72;;;3.63;;
60314;SDS011;46159;42.550;21.904;2023-04-03T02:14:18;8.13;;;3.40;;
60314;SDS011;46159;42.550;21.904;2023-04-03T02:16:44;6.40;;;3.20;;
60314;SDS011;46159;42.550;21.904;2023-04-03T02:19:10;10.90;;;4.40;;
60314;SDS011;46159;42.550;21.904;2023-04-03T02:21:36;9.98;;;4.00;;
60314;SDS011;46159;42.550;21.904;2023-04-03T02:24:02;8.82;;;3.63;;
60314;SDS011;46159;42.550;21.904;2023-04-03T02:26:28;8.25;;;4.13;;
60314;SDS011;46159;42.550;21.904;2023-04-03T02:28:54;8.90;;;4.13;;
60314;SDS011;46159;42.550;21.904;2023-04-03T02:31:20;10.85;;;5.55;;
60314;SDS011;46159;42.550;21.904;2023-04-03T02:33:47;10.18;;;5.63;;
60314;SDS011;46159;42.550;21.904;2023-04-03T02:36:13;10.40;;;4.90;;
60314;SDS011;46159;42.550;21.904;2023-04-03T02:38:39;9.93;;;4.70;;
60314;SDS011;46159;42.550;21.904;2023-04-03T02:41:06;8.60;;;3.70;;
60314;SDS011;46159;42.550;21.904;2023-04-03T02:43:32;9.88;;;3.40;;
60314;SDS011;46159;42.550;21.904;2023-04-03T02:45:58;9.45;;;4.05;;
60314;SDS011;46159;42.550;21.904;2023-04-03T02:48:25;7.90;;;3.78;;
60314;SDS011;46159;42.550;21.904;2023-04-03T02:50:51;9.63;;;3.53;;
60314;SDS011;46159;42.550;21.904;2023-04-03T02:53:17;9.98;;;5.28;;
60314;SDS011;46159;42.550;21.904;2023-04-03T02:55:44;11.80;;;4.55;;
60314;SDS011;46159;42.550;21.904;2023-04-03T02:58:10;10.85;;;4.32;;
60314;SDS011;46159;42.550;21.904;2023-04-03T03:00:36;8.98;;;4.38;;
60314;SDS011;46159;42.550;21.904;2023-04-03T03:03:02;11.90;;;4.35;;
60314;SDS011;46159;42.550;21.904;2023-04-03T03:05:29;23.88;;;11.57;;
60314;SDS011;46159;42.550;21.904;2023-04-03T03:07:55;17.02;;;8.45;;
60314;SDS011;46159;42.550;21.904;2023-04-03T03:10:22;8.68;;;3.85;;
60314;SDS011;46159;42.550;21.904;2023-04-03T03:12:48;9.48;;;4.32;;
60314;SDS011;46159;42.550;21.904;2023-04-03T03:15:14;7.22;;;3.45;;
60314;SDS011;46159;42.550;21.904;2023-04-03T03:17:42;8.55;;;4.45;;
60314;SDS011;46159;42.550;21.904;2023-04-03T03:20:08;10.43;;;5.78;;
60314;SDS011;46159;42.550;21.904;2023-04-03T03:22:34;12.15;;;6.13;;
60314;SDS011;46159;42.550;21.904;2023-04-03T03:25:01;10.85;;;4.90;;
60314;SDS011;46159;42.550;21.904;2023-04-03T03:27:27;10.32;;;5.03;;
60314;SDS011;46159;42.550;21.904;2023-04-03T03:29:53;11.50;;;5.68;;
60314;SDS011;46159;42.550;21.904;2023-04-03T03:32:19;13.82;;;7.70;;
60314;SDS011;46159;42.550;21.904;2023-04-03T03:34:45;10.65;;;6.43;;
60314;SDS011;46159;42.550;21.904;2023-04-03T03:37:11;13.50;;;6.45;;
60314;SDS011;46159;42.550;21.904;2023-04-03T03:39:37;10.98;;;6.65;;
60314;SDS011;46159;42.550;21.904;2023-04-03T03:42:03;12.98;;;6.35;;
60314;SDS011;46159;42.550;21.904;2023-04-03T03:44:29;10.35;;;5.90;;
60314;SDS011;46159;42.550;21.904;2023-04-03T03:46:55;11.10;;;5.85;;
60314;SDS011;46159;42.550;21.904;2023-04-03T03:49:22;11.35;;;5.82;;
60314;SDS011;46159;42.550;21.904;2023-04-03T03:51:48;9.93;;;4.38;;
60314;SDS011;46159;42.550;21.904;2023-04-03T03:54:15;7.88;;;4.22;;
60314;SDS011;46159;42.550;21.904;2023-04-03T03:56:41;9.70;;;4.30;;
60314;SDS011;46159;42.550;21.904;2023-04-03T03:59:07;8.57;;;4.57;;
60314;SDS011;46159;42.550;21.904;2023-04-03T04:01:33;10.32;;;4.43;;
60314;SDS011;46159;42.550;21.904;2023-04-03T04:03:59;8.85;;;4.28;;
60314;SDS011;46159;42.550;21.904;2023-04-03T04:06:25;9.05;;;4.35;;
60314;SDS011;46159;42.550;21.904;2023-04-03T04:08:51;9.55;;;5.13;;
60314;SDS011;46159;42.550;21.904;2023-04-03T04:11:17;9.48;;;5.57;;
60314;SDS011;46159;42.550;21.904;2023-04-03T04:13:43;11.98;;;5.22;;
60314;SDS011;46159;42.550;21.904;2023-04-03T04:16:09;11.43;;;6.28;;
60314;SDS011;46159;42.550;21.904;2023-04-03T04:18:36;12.77;;;6.68;;
60314;SDS011;46159;42.550;21.904;2023-04-03T04:21:02;14.77;;;7.95;;
60314;SDS011;46159;42.550;21.904;2023-04-03T04:23:28;19.20;;;7.80;;
60314;SDS011;46159;42.550;21.904;2023-04-03T04:25:54;15.43;;;9.80;;
60314;SDS011;46159;42.550;21.904;2023-04-03T04:28:20;16.33;;;8.25;;
60314;SDS011;46159;42.550;21.904;2023-04-03T04:30:46;18.80;;;7.88;;
60314;SDS011;46159;42.550;21.904;2023-04-03T04:33:12;15.52;;;8.65;;
60314;SDS011;46159;42.550;21.904;2023-04-03T04:35:39;18.77;;;9.27;;
60314;SDS011;46159;42.550;21.904;2023-04-03T04:38:08;17.48;;;9.43;;
60314;SDS011;46159;42.550;21.904;2023-04-03T04:40:34;17.88;;;9.57;;
60314;SDS011;46159;42.550;21.904;2023-04-03T04:43:00;20.92;;;11.15;;
60314;SDS011;46159;42.550;21.904;2023-04-03T04:45:26;15.90;;;10.07;;
60314;SDS011;46159;42.550;21.904;2023-04-03T04:47:54;14.43;;;8.30;;
60314;SDS011;46159;42.550;21.904;2023-04-03T04:50:20;14.95;;;8.18;;
60314;SDS011;46159;42.550;21.904;2023-04-03T04:52:47;11.27;;;5.93;;
60314;SDS011;46159;42.550;21.904;2023-04-03T04:55:13;11.25;;;6.68;;
60314;SDS011;46159;42.550;21.904;2023-04-03T04:57:40;14.55;;;7.07;;
60314;SDS011;46159;42.550;21.904;2023-04-03T05:00:06;12.95;;;6.82;;
60314;SDS011;46159;42.550;21.904;2023-04-03T05:02:33;12.43;;;6.60;;
60314;SDS011;46159;42.550;21.904;2023-04-03T05:05:00;8.73;;;4.57;;
60314;SDS011;46159;42.550;21.904;2023-04-03T05:07:26;8.70;;;5.10;;
60314;SDS011;46159;42.550;21.904;2023-04-03T05:09:52;9.43;;;4.90;;
60314;SDS011;46159;42.550;21.904;2023-04-03T05:12:18;12.75;;;6.53;;
60314;SDS011;46159;42.550;21.904;2023-04-03T05:14:44;12.70;;;6.07;;
60314;SDS011;46159;42.550;21.904;2023-04-03T05:17:10;14.52;;;6.65;;
60314;SDS011;46159;42.550;21.904;2023-04-03T05:19:36;10.63;;;6.10;;
60314;SDS011;46159;42.550;21.904;2023-04-03T05:22:02;13.90;;;7.72;;
60314;SDS011;46159;42.550;21.904;2023-04-03T05:24:28;14.75;;;7.45;;
60314;SDS011;46159;42.550;21.904;2023-04-03T05:26:54;15.82;;;8.63;;
60314;SDS011;46159;42.550;21.904;2023-04-03T05:29:21;18.95;;;8.90;;
60314;SDS011;46159;42.550;21.904;2023-04-03T05:31:48;15.30;;;8.40;;
60314;SDS011;46159;42.550;21.904;2023-04-03T05:34:15;11.60;;;6.57;;
60314;SDS011;46159;42.550;21.904;2023-04-03T05:36:41;12.82;;;7.03;;
60314;SDS011;46159;42.550;21.904;2023-04-03T05:39:07;10.05;;;6.68;;
60314;SDS011;46159;42.550;21.904;2023-04-03T05:41:34;11.15;;;7.40;;
60314;SDS011;46159;42.550;21.904;2023-04-03T05:44:00;14.27;;;7.40;;
60314;SDS011;46159;42.550;21.904;2023-04-03T05:46:26;15.20;;;7.53;;
60314;SDS011;46159;42.550;21.904;2023-04-03T05:48:52;16.05;;;8.45;;
60314;SDS011;46159;42.550;21.904;2023-04-03T05:51:19;16.17;;;8.82;;
60314;SDS011;46159;42.550;21.904;2023-04-03T05:53:45;16.55;;;9.05;;
60314;SDS011;46159;42.550;21.904;2023-04-03T05:56:12;15.50;;;9.70;;
60314;SDS011;46159;42.550;21.904;2023-04-03T05:58:38;15.30;;;8.32;;
60314;SDS011;46159;42.550;21.904;2023-04-03T06:01:04;13.93;;;7.15;;
60314;SDS011;46159;42.550;21.904;2023-04-03T06:03:31;12.85;;;7.18;;
60314;SDS011;46159;42.550;21.904;2023-04-03T06:05:57;9.65;;;6.22;;
60314;SDS011;46159;42.550;21.904;2023-04-03T06:08:23;13.23;;;6.80;;
60314;SDS011;46159;42.550;21.904;2023-04-03T06:10:49;10.52;;;6.55;;
60314;SDS011;46159;42.550;21.904;2023-04-03T06:13:16;12.02;;;6.40;;
60314;SDS011;46159;42.550;21.904;2023-04-03T06:15:42;11.48;;;6.53;;
60314;SDS011;46159;42.550;21.904;2023-04-03T06:18:08;13.63;;;5.72;;
60314;SDS011;46159;42.550;21.904;2023-04-03T06:20:34;9.93;;;4.63;;
60314;SDS011;46159;42.550;21.904;2023-04-03T06:23:00;10.38;;;4.78;;
60314;SDS011;46159;42.550;21.904;2023-04-03T06:25:27;8.95;;;3.90;;
60314;SDS011;46159;42.550;21.904;2023-04-03T06:27:53;15.18;;;6.43;;
60314;SDS011;46159;42.550;21.904;2023-04-03T06:30:20;12.20;;;5.82;;
60314;SDS011;46159;42.550;21.904;2023-04-03T06:32:46;11.23;;;6.07;;
60314;SDS011;46159;42.550;21.904;2023-04-03T06:35:12;15.82;;;7.95;;
60314;SDS011;46159;42.550;21.904;2023-04-03T06:37:38;11.85;;;6.75;;
60314;SDS011;46159;42.550;21.904;2023-04-03T06:40:05;17.20;;;7.57;;
60314;SDS011;46159;42.550;21.904;2023-04-03T06:42:31;14.38;;;7.93;;
60314;SDS011;46159;42.550;21.904;2023-04-03T06:44:57;12.40;;;6.88;;
60314;SDS011;46159;42.550;21.904;2023-04-03T06:47:23;9.98;;;6.10;;
60314;SDS011;46159;42.550;21.904;2023-04-03T06:49:49;11.73;;;6.45;;
60314;SDS011;46159;42.550;21.904;2023-04-03T06:52:15;15.82;;;7.13;;
60314;SDS011;46159;42.550;21.904;2023-04-03T06:54:42;8.70;;;5.13;;
60314;SDS011;46159;42.550;21.904;2023-04-03T06:57:08;14.68;;;8.02;;
60314;SDS011;46159;42.550;21.904;2023-04-03T06:59:34;13.98;;;7.18;;
60314;SDS011;46159;42.550;21.904;2023-04-03T07:02:01;14.18;;;7.72;;
60314;SDS011;46159;42.550;21.904;2023-04-03T07:04:27;14.05;;;7.50;;
60314;SDS011;46159;42.550;21.904;2023-04-03T07:06:53;17.48;;;9.52;;
60314;SDS011;46159;42.550;21.904;2023-04-03T07:09:19;15.20;;;8.95;;
60314;SDS011;46159;42.550;21.904;2023-04-03T07:11:46;19.95;;;9.57;;
60314;SDS011;46159;42.550;21.904;2023-04-03T07:14:12;15.10;;;8.98;;
60314;SDS011;46159;42.550;21.904;2023-04-03T07:16:38;17.75;;;9.75;;
60314;SDS011;46159;42.550;21.904;2023-04-03T07:19:04;16.17;;;10.50;;
60314;SDS011;46159;42.550;21.904;2023-04-03T07:21:30;14.38;;;9.55;;
60314;SDS011;46159;42.550;21.904;2023-04-03T07:23:56;16.65;;;11.52;;
60314;SDS011;46159;42.550;21.904;2023-04-03T07:26:22;12.40;;;8.07;;
60314;SDS011;46159;42.550;21.904;2023-04-03T07:28:49;14.07;;;8.77;;
60314;SDS011;46159;42.550;21.904;2023-04-03T07:31:15;14.30;;;9.82;;
60314;SDS011;46159;42.550;21.904;2023-04-03T07:33:42;26.58;;;18.17;;
60314;SDS011;46159;42.550;21.904;2023-04-03T07:36:09;15.38;;;9.57;;
60314;SDS011;46159;42.550;21.904;2023-04-03T07:38:36;16.08;;;9.43;;
60314;SDS011;46159;42.550;21.904;2023-04-03T07:41:02;15.38;;;10.75;;
60314;SDS011;46159;42.550;21.904;2023-04-03T07:43:29;12.40;;;8.93;;
60314;SDS011;46159;42.550;21.904;2023-04-03T07:45:55;20.73;;;14.48;;
60314;SDS011;46159;42.550;21.904;2023-04-03T07:48:22;15.02;;;9.05;;
60314;SDS011;46159;42.550;21.904;2023-04-03T07:50:48;13.02;;;9.02;;
60314;SDS011;46159;42.550;21.904;2023-04-03T07:53:14;13.38;;;9.93;;
60314;SDS011;46159;42.550;21.904;2023-04-03T07:55:41;13.80;;;10.02;;
60314;SDS011;46159;42.550;21.904;2023-04-03T07:58:10;14.45;;;9.00;;
60314;SDS011;46159;42.550;21.904;2023-04-03T08:00:37;15.38;;;9.13;;
60314;SDS011;46159;42.550;21.904;2023-04-03T08:03:03;17.30;;;10.90;;
60314;SDS011;46159;42.550;21.904;2023-04-03T08:05:30;13.57;;;9.05;;
60314;SDS011;46159;42.550;21.904;2023-04-03T08:07:56;14.93;;;7.35;;
60314;SDS011;46159;42.550;21.904;2023-04-03T08:10:22;17.95;;;8.75;;
60314;SDS011;46159;42.550;21.904;2023-04-03T08:12:48;13.90;;;8.75;;
60314;SDS011;46159;42.550;21.904;2023-04-03T08:15:15;20.83;;;10.05;;
60314;SDS011;46159;42.550;21.904;2023-04-03T08:17:41;9.95;;;5.78;;
60314;SDS011;46159;42.550;21.904;2023-04-03T08:20:09;12.40;;;7.90;;
60314;SDS011;46159;42.550;21.904;2023-04-03T08:22:35;12.88;;;8.48;;
60314;SDS011;46159;42.550;21.904;2023-04-03T08:25:01;12.88;;;5.43;;
60314;SDS011;46159;42.550;21.904;2023-04-03T08:27:28;19.23;;;8.88;;
60314;SDS011;46159;42.550;21.904;2023-04-03T08:29:54;12.48;;;8.30;;
60314;SDS011;46159;42.550;21.904;2023-04-03T08:32:21;12.02;;;7.07;;
60314;SDS011;46159;42.550;21.904;2023-04-03T08:34:49;16.45;;;9.48;;
60314;SDS011;46159;42.550;21.904;2023-04-03T08:37:15;17.70;;;8.82;;
60314;SDS011;46159;42.550;21.904;2023-04-03T08:39:44;13.45;;;8.57;;
60314;SDS011;46159;42.550;21.904;2023-04-03T08:42:22;19.95;;;9.32;;
60314;SDS011;46159;42.550;21.904;2023-04-03T08:44:58;14.65;;;9.63;;
60314;SDS011;46159;42.550;21.904;2023-04-03T08:47:32;10.32;;;7.15;;
60314;SDS011;46159;42.550;21.904;2023-04-03T08:50:03;20.65;;;10.07;;
60314;SDS011;46159;42.550;21.904;2023-04-03T08:55:07;24.20;;;7.45;;
60314;SDS011;46159;42.550;21.904;2023-04-03T08:57:34;12.88;;;8.30;;
60314;SDS011;46159;42.550;21.904;2023-04-03T09:00:04;12.65;;;8.60;;
60314;SDS011;46159;42.550;21.904;2023-04-03T09:02:43;11.55;;;6.65;;
60314;SDS011;46159;42.550;21.904;2023-04-03T09:05:14;26.02;;;9.48;;
60314;SDS011;46159;42.550;21.904;2023-04-03T09:07:45;14.27;;;7.60;;
60314;SDS011;46159;42.550;21.904;2023-04-03T09:10:13;12.27;;;8.48;;
60314;SDS011;46159;42.550;21.904;2023-04-03T09:12:41;13.45;;;7.18;;
60314;SDS011;46159;42.550;21.904;2023-04-03T09:15:21;16.25;;;10.55;;
60314;SDS011;46159;42.550;21.904;2023-04-03T09:17:52;16.55;;;8.88;;
60314;SDS011;46159;42.550;21.904;2023-04-03T09:22:45;11.82;;;7.18;;
60314;SDS011;46159;42.550;21.904;2023-04-03T09:25:31;14.70;;;9.00;;
60314;SDS011;46159;42.550;21.904;2023-04-03T09:28:00;26.50;;;10.32;;
60314;SDS011;46159;42.550;21.904;2023-04-03T09:30:27;17.90;;;10.60;;
60314;SDS011;46159;42.550;21.904;2023-04-03T09:32:54;14.60;;;8.95;;
60314;SDS011;46159;42.550;21.904;2023-04-03T09:35:28;16.25;;;8.98;;
60314;SDS011;46159;42.550;21.904;2023-04-03T09:38:31;12.10;;;7.45;;
60314;SDS011;46159;42.550;21.904;2023-04-03T09:41:02;31.58;;;11.25;;
60314;SDS011;46159;42.550;21.904;2023-04-03T09:43:33;18.00;;;8.30;;
60314;SDS011;46159;42.550;21.904;2023-04-03T09:46:29;34.75;;;11.00;;
60314;SDS011;46159;42.550;21.904;2023-04-03T09:48:56;10.07;;;5.40;;
60314;SDS011;46159;42.550;21.904;2023-04-03T09:51:26;13.40;;;8.27;;
60314;SDS011;46159;42.550;21.904;2023-04-03T09:53:53;12.68;;;6.82;;
60314;SDS011;46159;42.550;21.904;2023-04-03T09:56:24;14.05;;;7.18;;
60314;SDS011;46159;42.550;21.904;2023-04-03T10:04:09;20.88;;;12.93;;
60314;SDS011;46159;42.550;21.904;2023-04-03T10:09:27;19.48;;;10.85;;
60314;SDS011;46159;42.550;21.904;2023-04-03T10:14:30;18.83;;;13.32;;
60314;SDS011;46159;42.550;21.904;2023-04-03T10:19:32;13.85;;;9.02;;
60314;SDS011;46159;42.550;21.904;2023-04-03T10:29:34;17.17;;;10.35;;
60314;SDS011;46159;42.550;21.904;2023-04-03T10:34:47;15.98;;;9.10;;
60314;SDS011;46159;42.550;21.904;2023-04-03T10:37:56;18.10;;;9.35;;
60314;SDS011;46159;42.550;21.904;2023-04-03T10:40:20;15.60;;;10.00;;
60314;SDS011;46159;42.550;21.904;2023-04-03T10:45:30;28.60;;;13.77;;
60314;SDS011;46159;42.550;21.904;2023-04-03T10:48:07;23.80;;;12.88;;
60314;SDS011;46159;42.550;21.904;2023-04-03T10:50:45;26.38;;;10.88;;
60314;SDS011;46159;42.550;21.904;2023-04-03T10:58:32;23.77;;;13.73;;
60314;SDS011;46159;42.550;21.904;2023-04-03T11:01:19;15.25;;;10.98;;
60314;SDS011;46159;42.550;21.904;2023-04-03T11:03:51;20.17;;;12.25;;
60314;SDS011;46159;42.550;21.904;2023-04-03T11:06:19;22.63;;;12.52;;
60314;SDS011;46159;42.550;21.904;2023-04-03T11:08:49;18.67;;;12.70;;
60314;SDS011;46159;42.550;21.904;2023-04-03T11:11:30;21.40;;;13.40;;
60314;SDS011;46159;42.550;21.904;2023-04-03T11:16:39;14.75;;;8.63;;
60314;SDS011;46159;42.550;21.904;2023-04-03T11:21:48;17.30;;;11.10;;
60314;SDS011;46159;42.550;21.904;2023-04-03T11:24:25;26.80;;;14.95;;
60314;SDS011;46159;42.550;21.904;2023-04-03T11:26:51;23.23;;;13.95;;
60314;SDS011;46159;42.550;21.904;2023-04-03T11:29:20;19.08;;;12.68;;
60314;SDS011;46159;42.550;21.904;2023-04-03T11:32:04;19.83;;;12.55;;
60314;SDS011;46159;42.550;21.904;2023-04-03T11:34:38;14.70;;;8.05;;
60314;SDS011;46159;42.550;21.904;2023-04-03T11:40:39;16.23;;;11.93;;
60314;SDS011;46159;42.550;21.904;2023-04-03T11:42:40;22.48;;;13.85;;
60314;SDS011;46159;42.550;21.904;2023-04-03T11:47:53;21.38;;;14.50;;
60314;SDS011;46159;42.550;21.904;2023-04-03T11:58:03;17.10;;;10.70;;
60314;SDS011;46159;42.550;21.904;2023-04-03T12:05:53;20.63;;;14.20;;
60314;SDS011;46159;42.550;21.904;2023-04-03T12:14:02;23.95;;;11.55;;
60314;SDS011;46159;42.550;21.904;2023-04-03T12:16:29;18.77;;;13.35;;
60314;SDS011;46159;42.550;21.904;2023-04-03T12:18:57;17.27;;;10.40;;
60314;SDS011;46159;42.550;21.904;2023-04-03T12:24:03;18.80;;;12.20;;
60314;SDS011;46159;42.550;21.904;2023-04-03T12:31:40;20.60;;;14.20;;
60314;SDS011;46159;42.550;21.904;2023-04-03T12:34:12;21.05;;;13.45;;
60314;SDS011;46159;42.550;21.904;2023-04-03T12:39:18;22.70;;;14.50;;
60314;SDS011;46159;42.550;21.904;2023-04-03T12:46:50;17.95;;;13.40;;
60314;SDS011;46159;42.550;21.904;2023-04-03T12:56:50;19.73;;;14.25;;
60314;SDS011;46159;42.550;21.904;2023-04-03T12:59:19;18.73;;;12.38;;
60314;SDS011;46159;42.550;21.904;2023-04-03T13:01:55;21.65;;;16.10;;
60314;SDS011;46159;42.550;21.904;2023-04-03T13:06:48;18.93;;;15.20;;
60314;SDS011;46159;42.550;21.904;2023-04-03T13:09:28;20.35;;;12.88;;
60314;SDS011;46159;42.550;21.904;2023-04-03T13:11:56;21.40;;;16.25;;
60314;SDS011;46159;42.550;21.904;2023-04-03T13:14:24;28.05;;;15.05;;
60314;SDS011;46159;42.550;21.904;2023-04-03T13:16:57;20.08;;;14.90;;
60314;SDS011;46159;42.550;21.904;2023-04-03T13:19:24;21.23;;;16.52;;
60314;SDS011;46159;42.550;21.904;2023-04-03T13:21:52;29.27;;;17.35;;
60314;SDS011;46159;42.550;21.904;2023-04-03T13:24:22;20.15;;;13.35;;
60314;SDS011;46159;42.550;21.904;2023-04-03T13:26:48;22.35;;;16.15;;
60314;SDS011;46159;42.550;21.904;2023-04-03T13:29:24;26.63;;;18.98;;
60314;SDS011;46159;42.550;21.904;2023-04-03T13:31:54;30.60;;;19.15;;
60314;SDS011;46159;42.550;21.904;2023-04-03T13:34:22;21.10;;;14.30;;
60314;SDS011;46159;42.550;21.904;2023-04-03T13:36:59;22.70;;;18.13;;
60314;SDS011;46159;42.550;21.904;2023-04-03T13:41:52;27.00;;;19.00;;
60314;SDS011;46159;42.550;21.904;2023-04-03T13:49:34;27.38;;;19.67;;
60314;SDS011;46159;42.550;21.904;2023-04-03T13:52:03;40.83;;;20.17;;
60314;SDS011;46159;42.550;21.904;2023-04-03T13:56:56;26.20;;;16.63;;
60314;SDS011;46159;42.550;21.904;2023-04-03T14:04:28;19.35;;;11.85;;
60314;SDS011;46159;42.550;21.904;2023-04-03T14:06:55;24.35;;;14.35;;
60314;SDS011;46159;42.550;21.904;2023-04-03T14:09:23;22.85;;;15.00;;
60314;SDS011;46159;42.550;21.904;2023-04-03T14:11:52;21.88;;;12.95;;
60314;SDS011;46159;42.550;21.904;2023-04-03T14:14:29;20.17;;;13.05;;
60314;SDS011;46159;42.550;21.904;2023-04-03T14:16:57;26.05;;;14.57;;
60314;SDS011;46159;42.550;21.904;2023-04-03T14:19:34;19.98;;;13.45;;
60314;SDS011;46159;42.550;21.904;2023-04-03T14:22:05;20.48;;;12.95;;
60314;SDS011;46159;42.550;21.904;2023-04-03T14:24:32;15.07;;;9.55;;
60314;SDS011;46159;42.550;21.904;2023-04-03T14:26:58;12.32;;;7.78;;
60314;SDS011;46159;42.550;21.904;2023-04-03T14:29:25;12.00;;;6.97;;
60314;SDS011;46159;42.550;21.904;2023-04-03T14:31:51;10.80;;;5.70;;
60314;SDS011;46159;42.550;21.904;2023-04-03T14:34:17;12.90;;;8.18;;
60314;SDS011;46159;42.550;21.904;2023-04-03T14:36:44;16.33;;;10.15;;
60314;SDS011;46159;42.550;21.904;2023-04-03T14:39:16;17.00;;;10.70;;
60314;SDS011;46159;42.550;21.904;2023-04-03T14:41:42;15.30;;;10.80;;
60314;SDS011;46159;42.550;21.904;2023-04-03T14:44:09;16.00;;;9.90;;
60314;SDS011;46159;42.550;21.904;2023-04-03T14:46:36;16.90;;;10.77;;
60314;SDS011;46159;42.550;21.904;2023-04-03T14:49:03;16.42;;;9.38;;
60314;SDS011;46159;42.550;21.904;2023-04-03T14:51:32;15.55;;;10.50;;
60314;SDS011;46159;42.550;21.904;2023-04-03T14:53:59;18.50;;;11.00;;
60314;SDS011;46159;42.550;21.904;2023-04-03T14:56:26;16.25;;;10.93;;
60314;SDS011;46159;42.550;21.904;2023-04-03T14:59:00;16.48;;;11.52;;
60314;SDS011;46159;42.550;21.904;2023-04-03T15:01:27;17.67;;;11.80;;
60314;SDS011;46159;42.550;21.904;2023-04-03T15:03:53;16.40;;;11.57;;
60314;SDS011;46159;42.550;21.904;2023-04-03T15:06:19;16.10;;;11.13;;
60314;SDS011;46159;42.550;21.904;2023-04-03T15:08:46;17.60;;;11.90;;
60314;SDS011;46159;42.550;21.904;2023-04-03T15:11:12;20.20;;;12.25;;
60314;SDS011;46159;42.550;21.904;2023-04-03T15:13:39;21.42;;;14.43;;
60314;SDS011;46159;42.550;21.904;2023-04-03T15:16:06;22.48;;;14.98;;
60314;SDS011;46159;42.550;21.904;2023-04-03T15:18:37;25.48;;;18.10;;
60314;SDS011;46159;42.550;21.904;2023-04-03T15:21:04;16.27;;;11.88;;
60314;SDS011;46159;42.550;21.904;2023-04-03T15:23:30;21.33;;;13.55;;
60314;SDS011;46159;42.550;21.904;2023-04-03T15:25:57;20.55;;;13.80;;
60314;SDS011;46159;42.550;21.904;2023-04-03T15:30:52;23.67;;;15.32;;
60314;SDS011;46159;42.550;21.904;2023-04-03T15:33:18;21.30;;;14.50;;
60314;SDS011;46159;42.550;21.904;2023-04-03T15:35:44;18.88;;;12.20;;
60314;SDS011;46159;42.550;21.904;2023-04-03T15:38:10;23.35;;;15.90;;
60314;SDS011;46159;42.550;21.904;2023-04-03T15:40:36;21.38;;;14.80;;
60314;SDS011;46159;42.550;21.904;2023-04-03T15:43:03;19.08;;;13.30;;
60314;SDS011;46159;42.550;21.904;2023-04-03T15:45:29;19.42;;;11.55;;
60314;SDS011;46159;42.550;21.904;2023-04-03T15:47:55;17.52;;;11.07;;
60314;SDS011;46159;42.550;21.904;2023-04-03T15:50:21;20.02;;;14.57;;
60314;SDS011;46159;42.550;21.904;2023-04-03T15:52:49;16.52;;;11.73;;
60314;SDS011;46159;42.550;21.904;2023-04-03T15:55:19;15.88;;;11.40;;
60314;SDS011;46159;42.550;21.904;2023-04-03T15:57:45;16.30;;;11.68;;
60314;SDS011;46159;42.550;21.904;2023-04-03T16:00:11;15.35;;;9.73;;
60314;SDS011;46159;42.550;21.904;2023-04-03T16:02:38;15.25;;;8.38;;
60314;SDS011;46159;42.550;21.904;2023-04-03T16:05:04;13.95;;;8.57;;
60314;SDS011;46159;42.550;21.904;2023-04-03T16:07:30;15.65;;;9.57;;
60314;SDS011;46159;42.550;21.904;2023-04-03T16:09:56;14.60;;;8.23;;
60314;SDS011;46159;42.550;21.904;2023-04-03T16:12:22;13.60;;;7.63;;
60314;SDS011;46159;42.550;21.904;2023-04-03T16:14:48;16.15;;;9.05;;
60314;SDS011;46159;42.550;21.904;2023-04-03T16:17:14;11.98;;;6.38;;
60314;SDS011;46159;42.550;21.904;2023-04-03T16:19:40;13.02;;;7.47;;